createdAt,value
2019-03-28T00:01:11.240Z,20.82
2019-03-28T00:03:41.515Z,22.80
2019-03-28T00:06:11.710Z,23.13
2019-03-28T00:08:41.977Z,14.20
2019-03-28T00:11:12.307Z,17.90
2019-03-28T00:13:42.512Z,37.83
2019-03-28T00:16:13.042Z,20.97
2019-03-28T00:18:43.245Z,23.30
2019-03-28T00:21:13.439Z,18.17
2019-03-28T00:24:02.122Z,22.57
2019-03-28T00:26:32.300Z,22.90
2019-03-28T00:29:02.665Z,23.22
2019-03-28T00:31:32.830Z,19.67
2019-03-28T00:34:04.281Z,21.90
2019-03-28T00:36:34.557Z,28.60
2019-03-28T00:39:06.028Z,25.37
2019-03-28T00:41:36.455Z,23.07
2019-03-28T00:44:07.842Z,23.40
2019-03-28T00:46:38.401Z,23.13
2019-03-28T00:49:08.859Z,23.93
2019-03-28T00:51:39.052Z,27.98
2019-03-28T00:54:09.257Z,28.43
2019-03-28T00:56:47.017Z,28.93
2019-03-28T00:59:11.522Z,25.50
2019-03-28T01:01:42.193Z,24.82
2019-03-28T01:04:12.675Z,26.48
2019-03-28T01:06:42.852Z,19.63
2019-03-28T01:09:13.365Z,23.85
2019-03-28T01:11:43.726Z,32.13
2019-03-28T01:14:14.003Z,31.63
2019-03-28T01:16:44.269Z,19.85
2019-03-28T01:19:14.822Z,28.40
2019-03-28T01:21:45.090Z,32.23
2019-03-28T01:24:15.291Z,37.55
2019-03-28T01:26:56.542Z,31.87
2019-03-28T01:29:18.599Z,38.33
2019-03-28T01:31:48.810Z,34.37
2019-03-28T01:34:19.002Z,30.77
2019-03-28T01:36:50.563Z,33.13
2019-03-28T01:39:21.038Z,25.37
2019-03-28T01:41:51.256Z,27.40
2019-03-28T01:44:21.456Z,33.28
2019-03-28T01:46:51.916Z,27.25
2019-03-28T01:49:22.118Z,26.10
2019-03-28T01:51:52.389Z,35.03
2019-03-28T01:54:22.674Z,29.80
2019-03-28T01:56:53.043Z,30.90
2019-03-28T01:59:23.515Z,35.83
2019-03-28T02:01:53.715Z,26.50
2019-03-28T02:04:23.931Z,29.50
2019-03-28T02:06:54.478Z,26.97
2019-03-28T02:09:24.677Z,17.97
2019-03-28T02:11:54.887Z,27.40
2019-03-28T02:14:25.185Z,28.87
2019-03-28T02:16:55.375Z,26.00
2019-03-28T02:19:25.573Z,24.77
2019-03-28T02:21:55.757Z,20.47
2019-03-28T02:24:26.458Z,27.77
2019-03-28T02:26:56.615Z,23.37
2019-03-28T02:29:26.822Z,24.60
2019-03-28T02:31:57.008Z,27.40
2019-03-28T02:34:27.310Z,27.80
2019-03-28T02:36:57.722Z,27.17
2019-03-28T02:39:27.993Z,22.17
2019-03-28T02:41:59.032Z,23.27
2019-03-28T02:44:29.460Z,24.67
2019-03-28T02:46:59.745Z,23.70
2019-03-28T02:49:30.069Z,20.03
2019-03-28T02:52:01.569Z,22.30
2019-03-28T02:54:31.928Z,20.03
2019-03-28T02:57:02.137Z,17.53
2019-03-28T02:59:32.339Z,22.52
2019-03-28T03:02:02.622Z,17.37
2019-03-28T03:04:33.903Z,18.43
2019-03-28T03:07:04.172Z,22.10
2019-03-28T03:09:34.444Z,6.03
2019-03-28T03:12:04.994Z,17.30
2019-03-28T03:14:35.300Z,19.98
2019-03-28T03:17:05.496Z,19.07
2019-03-28T03:19:36.004Z,15.93
2019-03-28T03:22:06.536Z,16.73
2019-03-28T03:24:36.734Z,13.67
2019-03-28T03:27:07.036Z,13.53
2019-03-28T03:29:37.603Z,13.37
2019-03-28T03:32:08.249Z,15.40
2019-03-28T03:34:38.460Z,14.60
2019-03-28T03:37:08.703Z,14.90
2019-03-28T03:39:39.729Z,14.20
2019-03-28T03:42:10.137Z,13.43
2019-03-28T03:44:41.988Z,14.93
2019-03-28T03:47:12.442Z,14.33
2019-03-28T03:49:42.978Z,13.37
2019-03-28T03:52:13.150Z,14.43
2019-03-28T03:54:43.882Z,7.77
2019-03-28T03:57:14.077Z,12.40
2019-03-28T03:59:44.400Z,13.87
2019-03-28T04:02:14.578Z,13.90
2019-03-28T04:04:44.839Z,13.50
2019-03-28T04:07:15.040Z,14.83
2019-03-28T04:09:45.276Z,13.57
2019-03-28T04:12:15.577Z,13.70
2019-03-28T04:14:46.144Z,16.17
2019-03-28T04:17:16.437Z,20.90
2019-03-28T04:19:46.993Z,12.40
2019-03-28T04:22:17.275Z,11.75
2019-03-28T04:24:47.885Z,14.35
2019-03-28T04:27:18.263Z,15.90
2019-03-28T04:29:48.463Z,13.17
2019-03-28T04:32:18.752Z,15.80
2019-03-28T04:34:48.936Z,15.80
2019-03-28T04:37:19.478Z,16.42
2019-03-28T04:39:50.743Z,16.65
2019-03-28T04:42:21.192Z,15.40
2019-03-28T04:44:51.493Z,11.60
2019-03-28T04:47:21.740Z,16.80
2019-03-28T04:49:52.184Z,12.80
2019-03-28T04:52:22.404Z,14.45
2019-03-28T04:54:52.598Z,11.87
2019-03-28T04:57:22.867Z,12.23
2019-03-28T04:59:53.122Z,10.28
2019-03-28T05:02:23.410Z,13.03
2019-03-28T05:04:53.702Z,12.17
2019-03-28T05:07:24.498Z,12.70
2019-03-28T05:09:54.709Z,13.73
2019-03-28T05:12:25.438Z,11.10
2019-03-28T05:14:55.788Z,9.73
2019-03-28T05:17:25.969Z,12.07
2019-03-28T05:19:56.164Z,10.97
2019-03-28T05:22:26.431Z,12.25
2019-03-28T05:24:56.672Z,6.62
2019-03-28T05:27:27.200Z,11.30
2019-03-28T05:29:57.488Z,10.97
2019-03-28T05:32:27.764Z,10.87
2019-03-28T05:34:58.132Z,11.07
2019-03-28T05:37:28.570Z,10.88
2019-03-28T05:39:58.799Z,10.27
2019-03-28T05:42:28.993Z,12.63
2019-03-28T05:44:59.284Z,11.15
2019-03-28T05:47:29.681Z,11.90
2019-03-28T05:49:59.829Z,9.43
2019-03-28T05:52:30.450Z,10.50
2019-03-28T05:55:03.982Z,9.30
2019-03-28T05:57:33.893Z,9.27
2019-03-28T06:00:05.081Z,14.00
2019-03-28T06:02:35.335Z,8.87
2019-03-28T06:05:06.942Z,10.82
2019-03-28T06:07:37.253Z,8.20
2019-03-28T06:10:08.004Z,10.72
2019-03-28T06:12:39.405Z,7.70
2019-03-28T06:15:10.104Z,12.53
2019-03-28T06:17:40.735Z,8.67
2019-03-28T06:20:11.236Z,8.47
2019-03-28T06:22:41.516Z,8.95
2019-03-28T06:25:12.033Z,9.03
2019-03-28T06:27:42.503Z,8.80
2019-03-28T06:30:13.502Z,8.50
2019-03-28T06:32:43.785Z,8.07
2019-03-28T06:35:14.247Z,7.33
2019-03-28T06:37:44.526Z,9.47
2019-03-28T06:40:14.878Z,9.78
2019-03-28T06:42:45.097Z,6.75
2019-03-28T06:45:15.705Z,7.77
2019-03-28T06:47:45.982Z,7.50
2019-03-28T06:50:16.260Z,8.65
2019-03-28T06:52:46.675Z,7.63
2019-03-28T06:55:16.819Z,9.95
2019-03-28T06:57:47.889Z,10.25
2019-03-28T07:00:18.248Z,9.33
2019-03-28T07:02:48.505Z,7.90
2019-03-28T07:05:19.108Z,9.90
2019-03-28T07:07:49.637Z,8.97
2019-03-28T07:10:20.463Z,10.30
2019-03-28T07:12:50.896Z,11.47
2019-03-28T07:15:21.172Z,9.93
2019-03-28T07:17:51.837Z,9.83
2019-03-28T07:20:22.044Z,8.23
2019-03-28T07:22:52.394Z,10.50
2019-03-28T07:25:25.427Z,9.67
2019-03-28T07:27:55.266Z,9.65
2019-03-28T07:30:26.000Z,11.37
2019-03-28T07:32:56.578Z,14.05
2019-03-28T07:35:26.881Z,12.80
2019-03-28T07:37:57.071Z,10.58
2019-03-28T07:40:27.257Z,13.83
2019-03-28T07:42:58.596Z,12.93
2019-03-28T07:45:28.997Z,14.57
2019-03-28T07:47:59.721Z,12.13
2019-03-28T07:50:32.023Z,14.03
2019-03-28T07:53:01.789Z,9.95
2019-03-28T07:55:32.836Z,13.30
2019-03-28T07:58:03.114Z,12.63
2019-03-28T08:00:33.370Z,10.78
2019-03-28T08:03:03.808Z,11.13
2019-03-28T08:05:34.196Z,14.90
2019-03-28T08:08:05.381Z,10.60
2019-03-28T08:10:35.563Z,9.75
2019-03-28T08:13:05.739Z,12.43
2019-03-28T08:15:36.294Z,9.70
2019-03-28T08:18:06.555Z,13.27
2019-03-28T08:20:37.147Z,8.43
2019-03-28T08:23:07.433Z,9.57
2019-03-28T08:25:37.626Z,8.67
2019-03-28T08:28:08.777Z,8.83
2019-03-28T08:30:39.819Z,7.67
2019-03-28T08:33:10.423Z,7.17
2019-03-28T08:35:40.853Z,8.27
2019-03-28T08:38:11.065Z,6.93
2019-03-28T08:40:43.173Z,5.80
2019-03-28T08:43:13.566Z,4.97
2019-03-28T08:45:43.907Z,5.28
2019-03-28T08:48:14.079Z,5.33
2019-03-28T08:50:44.812Z,6.73
2019-03-28T08:53:15.151Z,3.90
2019-03-28T08:55:45.483Z,5.67
2019-03-28T08:58:15.777Z,4.77
2019-03-28T09:00:52.157Z,4.87
2019-03-28T09:03:18.095Z,4.73
2019-03-28T09:05:48.287Z,5.50
2019-03-28T09:08:18.782Z,4.33
2019-03-28T09:10:49.111Z,4.43
2019-03-28T09:13:19.288Z,5.63
2019-03-28T09:15:49.725Z,4.27
2019-03-28T09:18:20.216Z,4.33
2019-03-28T09:20:50.676Z,4.43
2019-03-28T09:23:20.954Z,6.85
2019-03-28T09:25:51.347Z,8.17
2019-03-28T09:28:21.521Z,6.40
2019-03-28T09:30:51.889Z,6.03
2019-03-28T09:33:22.070Z,7.85
2019-03-28T09:35:52.425Z,7.65
2019-03-28T09:38:23.669Z,10.85
2019-03-28T09:40:53.868Z,6.12
2019-03-28T09:43:25.012Z,8.90
2019-03-28T09:45:55.218Z,8.65
2019-03-28T09:48:25.392Z,7.77
2019-03-28T09:50:55.596Z,7.13
2019-03-28T09:53:25.779Z,8.60
2019-03-28T09:55:55.995Z,8.50
2019-03-28T09:58:26.179Z,6.60
2019-03-28T10:01:02.799Z,8.67
2019-03-28T10:03:29.268Z,8.65
2019-03-28T10:05:59.870Z,8.80
2019-03-28T10:08:30.199Z,8.43
2019-03-28T10:11:00.378Z,8.35
2019-03-28T10:13:30.683Z,8.57
2019-03-28T10:16:00.869Z,10.60
2019-03-28T10:18:31.109Z,7.33
2019-03-28T10:21:01.550Z,8.93
2019-03-28T10:23:31.792Z,9.10
2019-03-28T10:26:01.980Z,9.70
2019-03-28T10:28:32.463Z,10.87
2019-03-28T10:31:15.469Z,9.55
2019-03-28T10:33:34.906Z,10.03
2019-03-28T10:36:05.182Z,9.25
2019-03-28T10:38:36.341Z,9.47
2019-03-28T10:41:07.489Z,10.13
2019-03-28T10:43:37.677Z,9.63
2019-03-28T10:46:07.924Z,10.47
2019-03-28T10:48:38.125Z,12.07
2019-03-28T10:51:08.377Z,9.83
2019-03-28T10:53:38.566Z,9.13
2019-03-28T10:56:21.076Z,9.00
2019-03-28T10:58:40.951Z,9.17
2019-03-28T11:01:11.593Z,11.15
2019-03-28T11:03:41.791Z,10.57
2019-03-28T11:06:12.014Z,12.17
2019-03-28T11:08:42.756Z,9.53
2019-03-28T11:11:13.079Z,10.78
2019-03-28T11:13:43.282Z,9.30
2019-03-28T11:16:15.076Z,10.73
2019-03-28T11:18:45.441Z,9.13
2019-03-28T11:21:15.631Z,9.60
2019-03-28T11:23:45.845Z,9.68
2019-03-28T11:26:16.293Z,8.30
2019-03-28T11:28:46.481Z,13.07
2019-03-28T11:31:17.649Z,7.63
2019-03-28T11:33:47.849Z,8.30
2019-03-28T11:36:18.051Z,10.15
2019-03-28T11:38:48.246Z,8.87
2019-03-28T11:41:18.733Z,7.25
2019-03-28T11:43:48.939Z,7.92
2019-03-28T11:46:19.172Z,9.55
2019-03-28T11:48:49.358Z,6.07
2019-03-28T11:51:19.540Z,7.27
2019-03-28T11:53:49.737Z,10.33
2019-03-28T11:56:20.239Z,6.92
2019-03-28T11:58:51.396Z,7.83
2019-03-28T12:01:21.571Z,6.60
2019-03-28T12:03:52.036Z,7.40
2019-03-28T12:06:22.656Z,7.47
2019-03-28T12:08:55.816Z,8.28
2019-03-28T12:11:24.852Z,8.43
2019-03-28T12:13:55.043Z,8.23
2019-03-28T12:16:25.230Z,8.00
2019-03-28T12:18:55.419Z,8.03
2019-03-28T12:21:25.602Z,7.03
2019-03-28T12:23:55.788Z,9.37
2019-03-28T12:26:25.972Z,9.00
2019-03-28T12:28:56.175Z,9.43
2019-03-28T12:31:26.357Z,9.03
2019-03-28T12:33:56.607Z,7.97
2019-03-28T12:36:26.796Z,8.27
2019-03-28T12:38:56.973Z,8.20
2019-03-28T12:41:27.655Z,7.17
2019-03-28T12:43:58.669Z,7.00
2019-03-28T12:46:28.868Z,6.53
2019-03-28T12:48:59.336Z,6.87
2019-03-28T12:51:29.517Z,6.90
2019-03-28T12:53:59.771Z,7.90
2019-03-28T12:56:29.950Z,6.83
2019-03-28T12:59:00.144Z,9.77
2019-03-28T13:01:30.375Z,6.55
2019-03-28T13:04:00.800Z,7.67
2019-03-28T13:06:31.477Z,9.37
2019-03-28T13:09:01.676Z,9.35
2019-03-28T13:11:33.523Z,10.00
2019-03-28T13:14:04.128Z,9.53
2019-03-28T13:16:34.294Z,8.70
2019-03-28T13:19:04.473Z,9.47
2019-03-28T13:21:34.826Z,8.10
2019-03-28T13:24:07.855Z,10.08
2019-03-28T13:26:37.619Z,8.43
2019-03-28T13:29:07.926Z,9.17
2019-03-28T13:31:38.089Z,9.55
2019-03-28T13:34:08.290Z,10.43
2019-03-28T13:36:38.550Z,10.40
2019-03-28T13:39:09.029Z,11.57
2019-03-28T13:41:39.255Z,11.97
2019-03-28T13:44:12.133Z,11.70
2019-03-28T13:46:41.582Z,13.28
2019-03-28T13:49:11.774Z,17.90
2019-03-28T13:51:41.982Z,13.57
2019-03-28T13:54:12.301Z,10.70
2019-03-28T13:56:42.521Z,12.53
2019-03-28T13:59:13.572Z,12.97
2019-03-28T14:01:43.756Z,14.90
2019-03-28T14:04:13.952Z,11.93
2019-03-28T14:06:44.161Z,14.97
2019-03-28T14:09:14.597Z,11.53
2019-03-28T14:11:44.775Z,14.30
2019-03-28T14:14:14.971Z,12.33
2019-03-28T14:16:45.148Z,12.67
2019-03-28T14:19:15.344Z,11.87
2019-03-28T14:21:45.775Z,9.90
2019-03-28T14:24:15.974Z,9.20
2019-03-28T14:26:46.193Z,10.83
2019-03-28T14:29:16.644Z,12.93
2019-03-28T14:31:47.971Z,12.70
2019-03-28T14:34:18.184Z,11.80
2019-03-28T14:36:48.369Z,12.67
2019-03-28T14:39:18.641Z,12.57
2019-03-28T14:41:49.297Z,12.93
2019-03-28T14:44:19.460Z,15.03
2019-03-28T14:46:49.659Z,12.77
2019-03-28T14:49:20.006Z,13.97
2019-03-28T14:51:50.410Z,14.75
2019-03-28T14:54:20.657Z,12.70
2019-03-28T14:56:51.906Z,12.87
2019-03-28T14:59:32.367Z,16.63
2019-03-28T15:01:54.220Z,13.03
2019-03-28T15:04:24.655Z,17.27
2019-03-28T15:06:54.833Z,15.18
2019-03-28T15:09:25.041Z,17.02
2019-03-28T15:11:55.237Z,14.67
2019-03-28T15:14:26.399Z,13.73
2019-03-28T15:16:56.593Z,11.43
2019-03-28T15:19:27.047Z,12.65
2019-03-28T15:21:58.210Z,10.93
2019-03-28T15:24:28.416Z,13.43
2019-03-28T15:26:58.828Z,12.70
2019-03-28T15:29:29.224Z,14.33
2019-03-28T15:31:59.659Z,12.47
2019-03-28T15:34:30.120Z,14.67
2019-03-28T15:37:00.349Z,13.07
2019-03-28T15:39:31.621Z,10.85
2019-03-28T15:42:02.113Z,12.17
2019-03-28T15:44:32.306Z,14.95
2019-03-28T15:47:02.754Z,13.73
2019-03-28T15:49:33.012Z,13.50
2019-03-28T15:52:03.478Z,14.10
2019-03-28T15:54:34.744Z,11.37
2019-03-28T15:57:05.019Z,12.63
2019-03-28T15:59:35.464Z,16.73
2019-03-28T16:02:06.769Z,12.10
2019-03-28T16:04:36.963Z,15.13
2019-03-28T16:07:07.818Z,13.43
2019-03-28T16:09:38.170Z,13.80
2019-03-28T16:12:08.365Z,11.97
2019-03-28T16:14:38.563Z,11.93
2019-03-28T16:17:09.117Z,14.70
2019-03-28T16:19:40.287Z,14.03
2019-03-28T16:22:11.636Z,13.87
2019-03-28T16:24:42.217Z,14.77
2019-03-28T16:27:13.301Z,14.37
2019-03-28T16:29:43.732Z,13.63
2019-03-28T16:32:16.195Z,17.03
2019-03-28T16:34:46.495Z,17.73
2019-03-28T16:37:16.652Z,15.77
2019-03-28T16:39:49.846Z,12.97
2019-03-28T16:42:18.734Z,17.10
2019-03-28T16:44:48.961Z,13.77
2019-03-28T16:47:19.141Z,14.13
2019-03-28T16:49:49.347Z,15.03
2019-03-28T16:52:20.494Z,14.87
2019-03-28T16:54:50.690Z,19.12
2019-03-28T16:57:21.139Z,16.15
2019-03-28T16:59:51.401Z,17.63
2019-03-28T17:02:21.842Z,17.43
2019-03-28T17:04:52.039Z,16.37
2019-03-28T17:07:23.692Z,15.85
2019-03-28T17:09:55.080Z,16.50
2019-03-28T17:12:25.518Z,14.80
2019-03-28T17:14:56.023Z,18.83
2019-03-28T17:17:26.206Z,14.97
2019-03-28T17:19:56.401Z,13.27
2019-03-28T17:22:26.584Z,16.97
2019-03-28T17:24:56.796Z,13.68
2019-03-28T17:27:26.987Z,12.83
2019-03-28T17:29:57.182Z,12.53
2019-03-28T17:32:27.456Z,13.27
2019-03-28T17:34:57.665Z,15.30
2019-03-28T17:37:27.859Z,15.43
2019-03-28T17:39:58.058Z,12.73
2019-03-28T17:42:28.244Z,13.13
2019-03-28T17:44:59.599Z,14.97
2019-03-28T17:47:29.797Z,15.40
2019-03-28T17:50:00.368Z,14.83
2019-03-28T17:52:31.330Z,16.85
2019-03-28T17:55:01.524Z,15.50
2019-03-28T17:57:31.949Z,16.90
2019-03-28T18:00:02.152Z,20.25
2019-03-28T18:02:33.490Z,17.23
2019-03-28T18:05:09.451Z,20.10
2019-03-28T18:07:35.909Z,17.13
2019-03-28T18:10:06.342Z,18.53
2019-03-28T18:12:36.619Z,18.53
2019-03-28T18:15:07.080Z,19.73
2019-03-28T18:17:37.355Z,19.67
2019-03-28T18:20:08.406Z,18.27
2019-03-28T18:22:38.888Z,18.32
2019-03-28T18:25:09.831Z,17.32
2019-03-28T18:27:40.017Z,17.13
2019-03-28T18:30:10.991Z,16.00
2019-03-28T18:32:41.176Z,16.30
2019-03-28T18:35:12.615Z,20.37
2019-03-28T18:37:42.974Z,18.83
2019-03-28T18:40:14.666Z,17.70
2019-03-28T18:42:44.996Z,16.65
2019-03-28T18:45:15.643Z,15.15
2019-03-28T18:47:46.106Z,15.17
2019-03-28T18:50:17.562Z,14.80
2019-03-28T18:52:48.105Z,14.90
2019-03-28T18:55:20.706Z,15.18
2019-03-28T18:57:50.909Z,15.20
2019-03-28T19:00:22.063Z,16.07
2019-03-28T19:02:52.443Z,13.93
2019-03-28T19:05:22.966Z,12.37
2019-03-28T19:07:53.427Z,12.55
2019-03-28T19:10:23.627Z,12.20
2019-03-28T19:12:54.460Z,12.97
2019-03-28T19:15:24.729Z,12.93
2019-03-28T19:17:54.925Z,12.27
2019-03-28T19:20:25.406Z,13.53
2019-03-28T19:22:55.598Z,15.10
2019-03-28T19:25:25.936Z,13.83
2019-03-28T19:27:56.242Z,18.03
2019-03-28T19:30:33.811Z,19.00
2019-03-28T19:33:06.805Z,17.57
2019-03-28T19:35:37.540Z,19.70
2019-03-28T19:38:09.192Z,16.60
2019-03-28T19:40:39.794Z,16.73
2019-03-28T19:43:20.343Z,18.03
2019-03-28T19:45:42.847Z,15.72
2019-03-28T19:48:13.114Z,15.77
2019-03-28T19:50:43.322Z,20.95
2019-03-28T19:53:14.483Z,16.53
2019-03-28T19:55:44.683Z,14.23
2019-03-28T19:58:15.118Z,20.40
2019-03-28T20:00:45.468Z,16.17
2019-03-28T20:03:15.836Z,13.60
2019-03-28T20:05:48.467Z,15.13
2019-03-28T20:08:18.620Z,12.63
2019-03-28T20:10:49.335Z,13.83
2019-03-28T20:13:19.861Z,15.43
2019-03-28T20:15:50.437Z,18.32
2019-03-28T20:18:22.041Z,16.27
2019-03-28T20:20:55.543Z,16.70
2019-03-28T20:23:24.467Z,20.13
2019-03-28T20:25:54.686Z,16.17
2019-03-28T20:28:26.770Z,24.07
2019-03-28T20:30:56.951Z,17.17
2019-03-28T20:33:27.259Z,15.98
2019-03-28T20:36:18.528Z,16.10
2019-03-28T20:38:29.961Z,18.32
2019-03-28T20:41:00.173Z,16.17
2019-03-28T20:43:30.868Z,18.10
2019-03-28T20:46:01.524Z,21.00
2019-03-28T20:48:32.995Z,18.37
2019-03-28T20:51:03.652Z,19.63
2019-03-28T20:53:35.409Z,19.13
2019-03-28T20:56:06.563Z,19.87
2019-03-28T20:58:36.850Z,22.70
2019-03-28T21:01:07.110Z,20.48
2019-03-28T21:03:37.652Z,20.12
2019-03-28T21:06:15.009Z,21.93
2019-03-28T21:08:41.214Z,25.30
2019-03-28T21:11:11.468Z,20.97
2019-03-28T21:13:42.017Z,22.73
2019-03-28T21:16:12.328Z,26.12
2019-03-28T21:18:42.534Z,24.77
2019-03-28T21:21:13.037Z,22.53
2019-03-28T21:23:43.722Z,21.00
2019-03-28T21:26:15.028Z,27.13
2019-03-28T21:28:47.301Z,24.87
2019-03-28T21:31:18.469Z,23.07
2019-03-28T21:33:48.834Z,24.80
2019-03-28T21:36:29.800Z,21.48
2019-03-28T21:38:51.188Z,25.57
2019-03-28T21:41:21.418Z,22.45
2019-03-28T21:43:52.660Z,29.70
2019-03-28T21:46:22.882Z,28.27
2019-03-28T21:48:53.090Z,22.77
2019-03-28T21:51:23.313Z,23.73
2019-03-28T21:53:53.782Z,21.13
2019-03-28T21:56:24.196Z,19.20
2019-03-28T21:58:54.557Z,25.15
2019-03-28T22:01:25.756Z,21.65
2019-03-28T22:03:55.951Z,21.63
2019-03-28T22:06:26.131Z,20.73
2019-03-28T22:08:56.323Z,25.97
2019-03-28T22:11:27.141Z,20.97
2019-03-28T22:13:57.345Z,22.63
2019-03-28T22:16:27.877Z,22.10
2019-03-28T22:18:58.459Z,23.38
2019-03-28T22:21:30.076Z,18.82
2019-03-28T22:24:00.281Z,18.27
2019-03-28T22:26:30.460Z,22.73
2019-03-28T22:29:00.679Z,19.62
2019-03-28T22:31:31.111Z,23.62
2019-03-28T22:34:01.343Z,23.43
2019-03-28T22:36:31.604Z,23.63
2019-03-28T22:39:02.054Z,22.80
2019-03-28T22:41:33.565Z,21.23
2019-03-28T22:44:03.854Z,21.40
2019-03-28T22:46:34.289Z,21.93
2019-03-28T22:49:05.817Z,24.40
2019-03-28T22:51:36.401Z,21.80
2019-03-28T22:54:07.027Z,22.85
2019-03-28T22:56:37.210Z,23.57
2019-03-28T22:59:07.415Z,23.67
2019-03-28T23:01:37.785Z,20.93
2019-03-28T23:04:08.313Z,22.33
2019-03-28T23:06:39.718Z,23.77
2019-03-28T23:09:10.898Z,25.20
2019-03-28T23:11:41.743Z,22.52
2019-03-28T23:14:13.547Z,21.95
2019-03-28T23:16:43.724Z,25.73
2019-03-28T23:19:13.910Z,19.40
2019-03-28T23:21:44.365Z,21.82
2019-03-28T23:24:14.630Z,18.23
2019-03-28T23:26:44.816Z,18.83
2019-03-28T23:29:15.245Z,18.90
2019-03-28T23:31:46.718Z,23.10
2019-03-28T23:34:16.946Z,23.87
2019-03-28T23:36:47.839Z,25.37
2019-03-28T23:39:18.030Z,22.87
2019-03-28T23:41:48.476Z,21.17
2019-03-28T23:44:18.992Z,27.07
2019-03-28T23:46:49.183Z,26.35
2019-03-28T23:49:19.399Z,26.93
2019-03-28T23:51:50.270Z,26.17
2019-03-28T23:54:21.031Z,23.42
2019-03-28T23:56:51.289Z,30.07
2019-03-28T23:59:21.508Z,29.57
